createdAt,value
2022-10-17T00:02:18.426Z,29.95
2022-10-17T00:07:21.768Z,26.73
2022-10-17T00:12:26.634Z,27.65
2022-10-17T00:17:30.351Z,28.95
2022-10-17T00:22:33.863Z,32.08
2022-10-17T00:27:39.061Z,28.10
2022-10-17T00:32:42.545Z,30.20
2022-10-17T00:37:46.085Z,31.85
2022-10-17T00:42:53.084Z,33.35
2022-10-17T00:48:00.351Z,27.77
2022-10-17T00:53:06.590Z,29.98
2022-10-17T00:58:11.390Z,29.25
2022-10-17T01:03:15.156Z,32.33
2022-10-17T01:08:18.752Z,30.25
2022-10-17T01:13:29.425Z,28.98
2022-10-17T01:18:44.424Z,28.05
2022-10-17T01:24:08.774Z,28.10
2022-10-17T01:29:35.706Z,28.45
2022-10-17T01:34:46.253Z,32.47
2022-10-17T01:39:53.540Z,30.83
2022-10-17T01:45:01.017Z,32.85
2022-10-17T01:50:10.503Z,28.42
2022-10-17T01:55:20.024Z,29.60
2022-10-17T02:00:26.207Z,29.25
2022-10-17T02:05:34.238Z,27.80
2022-10-17T02:10:43.310Z,29.88
2022-10-17T02:16:12.632Z,28.52
2022-10-17T02:21:24.575Z,30.70
2022-10-17T02:26:32.495Z,28.17
2022-10-17T02:31:40.563Z,30.83
2022-10-17T02:36:49.310Z,24.85
2022-10-17T02:41:55.091Z,26.70
2022-10-17T02:47:06.380Z,26.35
2022-10-17T02:52:16.928Z,28.15
2022-10-17T02:57:26.759Z,28.58
2022-10-17T03:02:30.370Z,27.42
2022-10-17T03:07:35.197Z,27.70
2022-10-17T03:12:38.564Z,26.48
2022-10-17T03:17:42.397Z,29.42
2022-10-17T03:22:47.080Z,28.90
2022-10-17T03:27:50.723Z,27.58
2022-10-17T03:32:54.048Z,30.50
2022-10-17T03:37:58.700Z,29.17
2022-10-17T03:43:01.970Z,30.98
2022-10-17T03:48:05.832Z,34.03
2022-10-17T03:53:10.410Z,27.73
2022-10-17T03:58:14.180Z,30.85
2022-10-17T04:03:17.542Z,29.95
2022-10-17T04:08:22.172Z,30.05
2022-10-17T04:13:25.476Z,27.33
2022-10-17T04:18:29.053Z,29.70
2022-10-17T04:23:34.532Z,30.90
2022-10-17T04:33:43.197Z,32.20
2022-10-17T04:38:48.366Z,28.25
2022-10-17T04:43:51.673Z,35.38
2022-10-17T04:48:55.347Z,28.63
2022-10-17T04:54:00.273Z,30.80
2022-10-17T04:59:03.645Z,30.83
2022-10-17T05:04:07.057Z,29.92
2022-10-17T05:09:11.940Z,26.77
2022-10-17T05:14:16.374Z,29.02
2022-10-17T05:19:19.904Z,26.58
2022-10-17T05:24:25.532Z,31.48
2022-10-17T05:29:29.194Z,33.80
2022-10-17T05:34:32.640Z,31.50
2022-10-17T05:39:37.613Z,40.63
2022-10-17T05:44:41.528Z,31.27
2022-10-17T05:49:48.727Z,30.25
2022-10-17T05:54:56.002Z,28.60
2022-10-17T05:59:59.687Z,28.02
2022-10-17T06:05:02.947Z,27.75
2022-10-17T06:10:08.559Z,33.00
2022-10-17T06:15:12.993Z,27.40
2022-10-17T06:20:16.386Z,38.95
2022-10-17T06:25:20.973Z,31.20
2022-10-17T06:30:24.310Z,28.48
2022-10-17T06:35:27.827Z,34.15
2022-10-17T06:40:32.432Z,32.78
2022-10-17T06:45:35.914Z,29.70
2022-10-17T06:50:39.477Z,29.48
2022-10-17T06:55:44.321Z,31.63
2022-10-17T07:00:47.689Z,33.47
2022-10-17T07:05:53.197Z,30.52
2022-10-17T07:10:58.105Z,31.75
2022-10-17T07:16:01.926Z,37.70
2022-10-17T07:21:05.718Z,31.60
2022-10-17T07:26:12.851Z,27.08
2022-10-17T07:31:19.879Z,28.33
2022-10-17T07:36:23.339Z,29.42
2022-10-17T07:41:28.107Z,31.85
2022-10-17T07:46:31.484Z,29.50
2022-10-17T07:51:34.878Z,28.67
2022-10-17T07:56:39.650Z,29.05
2022-10-17T08:01:43.363Z,25.10
2022-10-17T08:06:46.666Z,25.20
2022-10-17T08:11:51.542Z,29.13
2022-10-17T08:16:55.879Z,23.52
2022-10-17T08:21:59.417Z,23.88
2022-10-17T08:27:11.199Z,24.70
2022-10-17T08:32:14.573Z,22.53
2022-10-17T08:37:17.983Z,21.00
2022-10-17T08:42:48.795Z,24.55
2022-10-17T08:47:58.830Z,22.55
2022-10-17T08:53:07.068Z,23.40
2022-10-17T08:58:17.031Z,19.30
2022-10-17T09:03:33.717Z,22.60
2022-10-17T09:08:45.560Z,18.90
2022-10-17T09:14:02.676Z,19.90
2022-10-17T09:19:12.787Z,19.92
2022-10-17T09:24:22.506Z,19.45
2022-10-17T09:29:34.167Z,17.25
2022-10-17T09:34:39.466Z,20.80
2022-10-17T09:39:43.888Z,18.52
2022-10-17T09:44:55.293Z,20.83
2022-10-17T09:49:58.981Z,20.10
2022-10-17T09:55:06.053Z,19.77
2022-10-17T10:00:22.375Z,19.88
2022-10-17T10:05:25.827Z,15.10
2022-10-17T10:10:31.007Z,18.50
2022-10-17T10:15:38.949Z,15.35
2022-10-17T10:20:46.688Z,15.10
2022-10-17T10:25:59.048Z,14.40
2022-10-17T10:31:07.641Z,16.73
2022-10-17T10:36:11.498Z,17.08
2022-10-17T10:41:14.828Z,14.98
2022-10-17T10:46:23.235Z,16.02
2022-10-17T10:51:33.513Z,14.80
2022-10-17T10:56:41.075Z,12.98
2022-10-17T11:01:50.956Z,15.70
2022-10-17T11:07:01.494Z,18.20
2022-10-17T11:12:08.087Z,17.38
2022-10-17T11:17:22.816Z,14.40
2022-10-17T11:22:32.571Z,15.95
2022-10-17T11:27:36.395Z,14.70
2022-10-17T11:32:46.799Z,12.23
2022-10-17T11:37:56.509Z,13.27
2022-10-17T11:43:02.655Z,12.23
2022-10-17T11:48:13.500Z,18.48
2022-10-17T11:53:20.220Z,14.40
2022-10-17T11:58:37.459Z,12.68
2022-10-17T12:03:52.879Z,12.00
2022-10-17T12:09:02.118Z,13.32
2022-10-17T12:14:38.682Z,12.57
2022-10-17T12:19:42.256Z,10.25
2022-10-17T12:24:54.672Z,10.02
2022-10-17T12:30:02.010Z,10.07
2022-10-17T12:35:06.391Z,10.00
2022-10-17T12:40:48.524Z,12.50
2022-10-17T12:45:54.890Z,11.95
2022-10-17T12:51:30.857Z,11.82
2022-10-17T12:56:37.240Z,11.57
2022-10-17T13:01:46.620Z,12.80
2022-10-17T13:06:54.223Z,10.98
2022-10-17T13:12:01.068Z,13.13
2022-10-17T13:17:07.931Z,13.27
2022-10-17T13:22:17.054Z,10.63
2022-10-17T13:27:26.891Z,15.35
2022-10-17T13:32:39.257Z,12.55
2022-10-17T13:37:44.561Z,12.40
2022-10-17T13:42:48.613Z,10.05
2022-10-17T13:47:53.276Z,11.30
2022-10-17T13:53:26.723Z,10.65
2022-10-17T13:58:40.198Z,9.73
2022-10-17T14:03:48.750Z,8.65
2022-10-17T14:08:59.667Z,7.57
2022-10-17T14:14:05.925Z,7.63
2022-10-17T14:19:23.944Z,9.77
2022-10-17T14:24:31.602Z,9.10
2022-10-17T14:29:53.129Z,12.40
2022-10-17T14:35:17.858Z,8.40
2022-10-17T14:40:25.631Z,12.75
2022-10-17T14:45:30.723Z,11.88
2022-10-17T14:50:36.355Z,11.10
2022-10-17T14:55:42.247Z,10.68
2022-10-17T15:00:45.621Z,11.63
2022-10-17T15:05:51.418Z,17.20
2022-10-17T15:10:57.062Z,11.48
2022-10-17T15:16:00.886Z,8.68
2022-10-17T15:21:19.724Z,11.45
2022-10-17T15:26:33.467Z,10.50
2022-10-17T15:31:36.789Z,10.25
2022-10-17T15:36:43.587Z,11.10
2022-10-17T15:41:48.406Z,18.17
2022-10-17T15:46:51.986Z,11.65
2022-10-17T15:51:56.621Z,9.77
2022-10-17T15:56:59.960Z,13.60
2022-10-17T16:02:03.212Z,10.10
2022-10-17T16:07:08.347Z,9.63
2022-10-17T16:12:15.982Z,7.85
2022-10-17T16:17:19.937Z,8.43
2022-10-17T16:22:30.038Z,11.43
2022-10-17T16:27:33.569Z,9.15
2022-10-17T16:32:36.863Z,15.80
2022-10-17T16:37:41.734Z,11.07
2022-10-17T16:42:45.533Z,17.73
2022-10-17T16:47:50.537Z,10.60
2022-10-17T16:52:55.193Z,9.75
2022-10-17T16:57:59.991Z,9.93
2022-10-17T17:03:03.338Z,12.05
2022-10-17T17:08:11.802Z,9.10
2022-10-17T17:13:16.113Z,8.05
2022-10-17T17:18:19.726Z,9.20
2022-10-17T17:23:24.805Z,14.05
2022-10-17T17:28:29.126Z,9.63
2022-10-17T17:33:33.797Z,12.63
2022-10-17T17:38:40.083Z,9.45
2022-10-17T17:43:44.098Z,8.80
2022-10-17T17:48:48.681Z,9.00
2022-10-17T17:53:53.624Z,9.77
2022-10-17T17:58:59.264Z,9.48
2022-10-17T18:04:02.600Z,8.73
2022-10-17T18:09:09.048Z,12.23
2022-10-17T18:14:13.649Z,8.98
2022-10-17T18:19:17.660Z,9.77
2022-10-17T18:24:22.804Z,9.77
2022-10-17T18:29:26.364Z,8.65
2022-10-17T18:34:29.798Z,10.90
2022-10-17T18:39:35.468Z,10.52
2022-10-17T18:44:39.254Z,9.65
2022-10-17T18:49:42.937Z,8.57
2022-10-17T18:54:47.635Z,9.55
2022-10-17T18:59:51.176Z,10.93
2022-10-17T19:04:54.882Z,12.00
2022-10-17T19:09:59.830Z,9.85
2022-10-17T19:15:03.377Z,9.63
2022-10-17T19:20:08.463Z,10.88
2022-10-17T19:25:13.143Z,10.82
2022-10-17T19:30:16.434Z,9.88
2022-10-17T19:35:19.870Z,11.15
2022-10-17T19:40:24.509Z,8.82
2022-10-17T19:45:27.833Z,9.18
2022-10-17T19:50:31.359Z,14.02
2022-10-17T19:55:36.274Z,12.75
2022-10-17T20:00:39.586Z,9.82
2022-10-17T20:05:42.940Z,12.88
2022-10-17T20:10:47.865Z,13.23
2022-10-17T20:15:57.615Z,10.65
2022-10-17T20:21:04.803Z,11.50
2022-10-17T20:26:26.402Z,12.82
2022-10-17T20:31:40.376Z,13.27
2022-10-17T20:36:44.229Z,10.07
2022-10-17T20:41:49.106Z,8.30
2022-10-17T20:47:01.809Z,8.57
2022-10-17T20:52:07.028Z,12.00
2022-10-17T20:57:11.648Z,10.77
2022-10-17T21:02:15.331Z,11.25
2022-10-17T21:07:18.652Z,7.82
2022-10-17T21:12:36.635Z,9.93
2022-10-17T21:17:46.798Z,13.27
2022-10-17T21:22:50.372Z,11.32
2022-10-17T21:27:55.263Z,9.05
2022-10-17T21:32:58.933Z,9.60
2022-10-17T21:38:02.354Z,11.32
2022-10-17T21:43:07.250Z,16.98
2022-10-17T21:48:12.921Z,8.70
2022-10-17T21:53:17.011Z,8.27
2022-10-17T21:58:22.703Z,16.67
2022-10-17T22:03:25.965Z,11.52
2022-10-17T22:08:30.263Z,12.25
2022-10-17T22:13:35.242Z,7.97
2022-10-17T22:18:39.337Z,10.57
2022-10-17T22:23:43.318Z,11.20
2022-10-17T22:28:48.340Z,8.98
2022-10-17T22:33:52.030Z,10.43
2022-10-17T22:38:55.342Z,7.20
2022-10-17T22:44:00.385Z,9.38
2022-10-17T22:49:03.811Z,10.55
2022-10-17T22:54:07.489Z,10.27
2022-10-17T22:59:12.155Z,9.55
2022-10-17T23:04:15.409Z,7.78
2022-10-17T23:09:18.990Z,9.40
2022-10-17T23:14:23.657Z,8.88
2022-10-17T23:19:26.937Z,10.07
2022-10-17T23:24:31.008Z,11.60
2022-10-17T23:29:35.943Z,10.57
2022-10-17T23:34:39.227Z,9.23
2022-10-17T23:39:42.670Z,10.48
2022-10-17T23:44:47.350Z,10.23
2022-10-17T23:49:50.719Z,10.43
2022-10-17T23:54:54.037Z,8.80
2022-10-17T23:59:58.683Z,7.68
